• Join FlightAware (Why Join?)
  • Login
  • US Flag 
04:07PM EDT


 

Airport Tracker/Info


-or-


 

Live Flight TrackerFlight Track Log ✈ AWE1940 ✈ 21-May-2013 ✈ KCLT - KALB

Flight Track Log - Related Links

Times and Time Zones

All times are in EDT time to prevent confusion due to time zone crossing. See the AWE1940 flight status page for this flight to view local times or setup timezone preferences in your user account.

Time Position Orientation Groundspeed Altitude Reporting Facility
EDT Latitude Longitude Course Direction KTS MPH feet Rate Location/Type
10:30PM 35.1950 -80.9356 72° East 162 186 1,600  Level Atlanta Center
10:32PM 35.1425 -80.9222 168° South 209 241 3,300 1,920 Climbing Atlanta Center
10:33PM 35.1000 -80.6333 90° East  Level FlightAware Approximate
10:33PM 35.1217 -80.8392 107° East 288 331 5,800  Level Atlanta Center
10:34PM 35.1927 -80.5716 29° Northeast  Level FlightAware Approximate
10:34PM 35.1589 -80.7539 62° Northeast 280 322 8,600  Level Atlanta Center
10:35PM 35.2840 -80.5067 30° Northeast  Level FlightAware Approximate
10:35PM 35.1944 -80.6764 61° Northeast 302 348 10,800  Level Atlanta Center
10:36PM 35.3449 -80.4230 72° East  Level FlightAware Approximate
10:36PM 35.2394 -80.5728 62° Northeast 326 375 13,100  Level Atlanta Center
10:37PM 35.2906 -80.4611 61° Northeast 334 384 15,900 2,640 Climbing Atlanta Center
10:38PM 35.3414 -80.3494 61° Northeast 354 407 18,400 2,100 Climbing Atlanta Center
10:40PM 35.4433 -80.0944 64° Northeast 387 445 22,900 1,860 Climbing Washington Center
10:41PM 35.4842 -79.9489 71° East 392 451 24,700 1,620 Climbing Washington Center
10:42PM 35.5183 -79.8078 73° East 411 473 26,200 1,140 Climbing Washington Center
10:43PM 35.5525 -79.6667 73° East 424 488 27,000 420 Climbing Washington Center
10:44PM 35.5928 -79.5231 71° East 441 507 27,100 720 Climbing Washington Center
10:45PM 35.6350 -79.3794 70° East 446 513 28,500 1,500 Climbing Washington Center
10:46PM 35.6936 -79.2417 62° Northeast 446 513 30,200 1,680 Climbing Washington Center
10:47PM 35.7661 -79.1144 55° Northeast 446 513 31,900 1,380 Climbing Washington Center
10:48PM 35.8447 -79.0000 50° Northeast 446 513 33,000 540 Climbing Washington Center
10:49PM 35.9253 -78.8828 50° Northeast 446 513 33,000  Level Washington Center
10:50PM 36.0214 -78.7919 37° Northeast 435 501 33,000  Level Washington Center
10:51PM 36.1158 -78.7006 38° Northeast 435 501 33,000  Level Washington Center
10:52PM 36.2142 -78.6092 37° Northeast 435 501 33,000  Level Washington Center
10:53PM 36.3103 -78.5175 38° Northeast 435 501 33,000  Level Washington Center
10:54PM 36.4019 -78.4306 37° Northeast 429 494 33,000  Level Washington Center
10:55PM 36.4958 -78.3383 38° Northeast 429 494 33,000  Level Washington Center
10:56PM 36.5897 -78.2486 37° Northeast 429 494 33,000  Level Washington Center
10:57PM 36.6644 -78.1761 38° Northeast 429 494 33,000  Level Washington Center
10:58PM 36.7647 -78.0758 39° Northeast 424 488 33,000  Level Washington Center
10:59PM 36.8583 -77.9853 38° Northeast 418 481 33,000  Level Washington Center
11:00PM 36.9519 -77.8919 39° Northeast 423 487 33,000  Level Washington Center
11:01PM 37.0453 -77.8011 38° Northeast 423 487 33,000  Level Washington Center
11:02PM 37.1367 -77.7100 38° Northeast 423 487 33,000  Level Washington Center
11:03PM 37.2300 -77.6186 38° Northeast 423 487 33,000  Level Washington Center
11:04PM 37.3233 -77.5297 37° Northeast 423 487 33,000  Level Washington Center
11:05PM 37.4144 -77.4378 39° Northeast 428 493 33,000  Level Washington Center
11:06PM 37.5075 -77.3458 38° Northeast 428 493 33,000  Level Washington Center
11:07PM 37.5967 -77.2536 39° Northeast 428 493 33,000  Level Washington Center
11:08PM 37.6875 -77.1636 38° Northeast 423 487 33,000  Level Washington Center
11:09PM 37.7783 -77.0711 39° Northeast 423 487 33,000  Level Washington Center
11:10PM 37.8692 -76.9808 38° Northeast 423 487 33,000  Level Washington Center
11:11PM 37.9578 -76.8900 39° Northeast 423 487 33,000  Level Washington Center
11:12PM 38.0483 -76.7994 38° Northeast 417 480 33,000  Level Washington Center
11:13PM 38.1389 -76.7058 39° Northeast 417 480 33,000  Level Washington Center
11:14PM 38.2294 -76.6119 39° Northeast 417 480 33,000  Level Washington Center
11:15PM 38.3156 -76.5258 38° Northeast 417 480 33,000  Level Washington Center
11:16PM 38.4058 -76.4317 39° Northeast 411 473 33,000  Level Washington Center
11:17PM 38.4942 -76.3397 39° Northeast 406 467 33,000  Level Washington Center
11:18PM 38.5822 -76.2478 39° Northeast 406 467 33,000  Level Washington Center
11:19PM 38.6786 -76.1528 38° Northeast 406 467 33,000  Level Washington Center
11:20PM 38.7644 -76.0603 40° Northeast 411 473 33,000  Level Washington Center
11:21PM 38.8544 -75.9675 39° Northeast 411 473 33,000  Level Washington Center
11:22PM 38.9442 -75.8744 39° Northeast 406 467 33,000  Level Washington Center
11:23PM 39.0319 -75.7814 39° Northeast 406 467 33,000  Level Washington Center
11:24PM 39.1197 -75.6906 39° Northeast 401 461 33,000  Level Washington Center
11:25PM 39.2092 -75.5969 39° Northeast 401 461 33,000  Level Washington Center
11:26PM 39.2967 -75.5031 40° Northeast 401 461 33,000 -360 Level Washington Center
11:27PM 39.3842 -75.4117 39° Northeast 401 461 32,300 -840 Descending Washington Center
11:28PM 39.4714 -75.3172 40° Northeast 401 461 31,400 -660 Descending Washington Center
11:29PM 39.5608 -75.2200 40° Northeast 401 461 31,000 -240 Descending Washington Center
11:30PM 39.6481 -75.1225 41° Northeast 401 461 31,000  Level Washington Center
11:32PM 39.8450 -74.9075 40° Northeast 411 473 31,000  Level New York Center
11:33PM 39.9314 -74.8261 36° Northeast 426 490 31,000  Level New York Center
11:34PM 40.0203 -74.7256 41° Northeast 426 490 31,000  Level New York Center
11:35PM 40.1131 -74.6275 39° Northeast 426 490 31,000  Level New York Center
11:36PM 40.2231 -74.5739 20° North 417 480 31,000  Level New York Center
11:37PM 40.3347 -74.5367 14° North 412 474 31,000  Level New York Center
11:38PM 40.4486 -74.5019 13° North 412 474 31,000  Level New York Center
11:39PM 40.5642 -74.4672 13° North 412 474 31,000  Level New York Center
11:40PM 40.6756 -74.4322 13° North 412 474 31,000 -240 Level New York Center
11:42PM 40.9147 -74.3683 11° North 415 478 30,300 -600 Descending Boston Center
11:43PM 41.0297 -74.3331 13° North 415 478 29,300 -1,080 Descending Boston Center
11:44PM 41.1431 -74.3006 12° North 415 478 28,200 -1,260 Descending Boston Center
11:45PM 41.2539 -74.2653 13° North 410 472 26,900 -1,080 Descending Boston Center
11:46PM 41.3672 -74.2269 14° North 410 472 26,100 -540 Descending Boston Center
11:47PM 41.4803 -74.1914 13° North 410 472 25,900 -900 Descending Boston Center
11:48PM 41.5933 -74.1611 11° North 410 472 24,300 -1,800 Descending Boston Center
11:49PM 41.7019 -74.1306 12° North 410 472 22,300 -2,100 Descending Boston Center
11:50PM 41.8172 -74.0947 13° North 400 460 20,200 -2,160 Descending Boston Center
11:51PM 41.9136 -74.0667 12° North 391 450 18,200 -2,400 Descending Boston Center
11:52PM 42.0244 -74.0303 14° North 371 427 15,500 -2,520 Descending Boston Center
11:53PM 42.1125 -74.0017 14° North 371 427 13,000 -2,100 Descending Boston Center
11:54PM 42.2194 -73.9594 16° North 361 415 11,300 -1,200 Descending Boston Center
11:55PM 42.2906 -73.9247 20° North 328 377 10,600 -960 Descending Boston Center
11:56PM 42.3850 -73.8819 18° North 280 322 9,300 -1,260 Descending Boston Center
11:57PM 42.4561 -73.8500 18° North 270 311 7,900 -1,380 Descending Boston Center
11:58PM 42.5339 -73.8094 21° North 275 316 6,600 -1,260 Descending Boston Center
11:59PM 42.5844 -73.7542 39° Northeast 262 302 5,400 -840 Descending Boston Center
12:00AM 42.5414 -73.7025 139° Southeast 214 246 5,000 -240 Descending Boston Center
12:01AM 42.4808 -73.7014 179° South 206 237 5,000  Level Boston Center
12:02AM 42.4511 -73.7569 234° Southwest 204 235 5,000  Level Boston Center